Time;durP1;ratioP1;P1;durP2;ratioP2;P2;SDS_P1;SDS_P2;PMS_P1;PMS_P2;Temp;Humidity;BMP_temperature;BMP_pressure;BME280_temperature;BME280_humidity;BME280_pressure;Samples;Min_cycle;Max_cycle;Signal;HPM_P1;HPM_P2
2024/03/01 00:01:40;;;;;;;20.33;16.55;;;;;;;;;;10371901;28;20098;-67
2024/03/01 00:06:40;;;;;;;19.58;16.48;;;;;;;;;;10372600;28;20072;-66
2024/03/01 00:11:38;;;;;;;25.95;16.98;;;;;;;;;;10376564;28;20047;-67
2024/03/01 00:16:36;;;;;;;21.92;17.63;;;;;;;;;;10371897;28;20539;-67
2024/03/01 00:21:35;;;;;;;24.40;17.10;;;;;;;;;;10369186;28;20075;-66
2024/03/01 00:26:34;;;;;;;22.88;15.93;;;;;;;;;;10374336;28;20063;-66
2024/03/01 00:31:33;;;;;;;19.80;16.17;;;;;;;;;;10371998;28;20036;-66
2024/03/01 00:36:31;;;;;;;21.35;17.65;;;;;;;;;;10371428;28;20068;-67
2024/03/01 00:41:29;;;;;;;22.48;16.73;;;;;;;;;;10372912;28;20079;-66
2024/03/01 00:46:29;;;;;;;20.50;17.77;;;;;;;;;;10371178;28;20059;-67
2024/03/01 00:51:27;;;;;;;21.80;17.23;;;;;;;;;;10371923;28;20074;-66
2024/03/01 00:56:25;;;;;;;26.13;17.77;;;;;;;;;;10370436;28;20067;-67
2024/03/01 01:01:24;;;;;;;24.10;16.55;;;;;;;;;;10371431;28;20083;-67
2024/03/01 01:06:23;;;;;;;21.20;17.83;;;;;;;;;;10370750;28;20504;-67
2024/03/01 01:11:22;;;;;;;19.52;17.05;;;;;;;;;;10374755;28;20068;-67
2024/03/01 01:16:20;;;;;;;20.92;18.50;;;;;;;;;;10377953;28;20071;-66
2024/03/01 01:21:18;;;;;;;21.90;17.50;;;;;;;;;;10370650;28;20071;-68
2024/03/01 01:26:18;;;;;;;27.95;20.77;;;;;;;;;;10374629;28;20060;-67
2024/03/01 01:31:16;;;;;;;22.85;19.10;;;;;;;;;;10376702;28;20066;-68
2024/03/01 01:36:15;;;;;;;24.95;17.00;;;;;;;;;;10379055;28;20072;-67
2024/03/01 01:41:13;;;;;;;20.98;17.58;;;;;;;;;;10378020;28;20074;-67
2024/03/01 01:46:13;;;;;;;20.13;18.05;;;;;;;;;;10376206;28;20079;-67
2024/03/01 01:51:13;;;;;;;20.17;17.23;;;;;;;;;;10376740;28;20524;-66
2024/03/01 01:56:13;;;;;;;21.58;17.10;;;;;;;;;;10377237;28;20055;-66
2024/03/01 02:01:15;;;;;;;22.63;18.88;;;;;;;;;;10375440;28;20076;-66
2024/03/01 02:06:13;;;;;;;23.08;18.92;;;;;;;;;;10375397;28;20157;-66
2024/03/01 02:11:12;;;;;;;25.85;18.33;;;;;;;;;;10368500;28;20082;-67
2024/03/01 02:16:10;;;;;;;20.80;17.92;;;;;;;;;;10377064;28;20074;-67
2024/03/01 02:21:11;;;;;;;22.27;17.90;;;;;;;;;;10374164;28;20445;-67
2024/03/01 02:26:13;;;;;;;20.33;16.13;;;;;;;;;;10373969;28;20064;-66
2024/03/01 02:31:11;;;;;;;30.30;22.77;;;;;;;;;;10354768;28;20040;-66
2024/03/01 02:36:10;;;;;;;21.73;16.45;;;;;;;;;;10376466;28;20113;-66
2024/03/01 02:41:08;;;;;;;17.92;15.25;;;;;;;;;;10372957;28;20079;-67
2024/03/01 02:46:11;;;;;;;22.83;18.27;;;;;;;;;;10374199;28;20059;-67
2024/03/01 02:51:09;;;;;;;23.60;18.17;;;;;;;;;;10374504;28;20074;-67
2024/03/01 02:56:08;;;;;;;18.92;16.55;;;;;;;;;;10376444;28;20512;-66
2024/03/01 03:01:06;;;;;;;19.23;16.48;;;;;;;;;;10374215;28;20083;-67
2024/03/01 03:06:06;;;;;;;21.00;16.90;;;;;;;;;;10373495;28;20075;-67
2024/03/01 03:11:08;;;;;;;19.33;16.35;;;;;;;;;;10373532;28;20078;-67
2024/03/01 03:16:06;;;;;;;20.92;16.73;;;;;;;;;;10372403;28;20067;-67
2024/03/01 03:21:06;;;;;;;16.45;14.02;;;;;;;;;;10374037;28;20075;-67
2024/03/01 03:26:05;;;;;;;16.58;13.88;;;;;;;;;;10368621;28;20084;-67
2024/03/01 03:31:03;;;;;;;21.80;16.08;;;;;;;;;;10374188;28;20550;-67
2024/03/01 03:36:02;;;;;;;19.58;14.90;;;;;;;;;;10353824;28;20082;-67
2024/03/01 03:41:01;;;;;;;19.13;15.52;;;;;;;;;;10374938;28;20109;-66
2024/03/01 03:46:00;;;;;;;19.83;15.48;;;;;;;;;;10369353;28;20716;-67
2024/03/01 03:50:58;;;;;;;18.42;15.50;;;;;;;;;;10372399;28;20056;-67
2024/03/01 03:55:56;;;;;;;17.20;13.98;;;;;;;;;;10371914;28;20075;-66
2024/03/01 04:00:56;;;;;;;18.38;14.27;;;;;;;;;;10373648;28;20088;-66
2024/03/01 04:05:54;;;;;;;18.67;13.55;;;;;;;;;;10369951;28;20476;-65
2024/03/01 04:10:53;;;;;;;17.33;14.13;;;;;;;;;;10365506;28;20072;-66
2024/03/01 04:15:51;;;;;;;18.83;14.20;;;;;;;;;;10374646;28;20527;-66
2024/03/01 04:20:50;;;;;;;15.73;13.63;;;;;;;;;;10374084;28;20067;-66
2024/03/01 04:25:51;;;;;;;16.65;14.07;;;;;;;;;;10369859;28;20074;-66
2024/03/01 04:30:49;;;;;;;21.30;15.18;;;;;;;;;;10377782;28;20071;-66
2024/03/01 04:35:48;;;;;;;18.35;14.38;;;;;;;;;;10379506;28;20079;-66
2024/03/01 04:40:47;;;;;;;19.33;14.57;;;;;;;;;;10370930;28;20086;-67
2024/03/01 04:45:46;;;;;;;20.55;15.02;;;;;;;;;;10376704;28;20083;-66
2024/03/01 04:50:44;;;;;;;21.65;16.40;;;;;;;;;;10380960;28;20073;-67
2024/03/01 04:55:42;;;;;;;31.63;14.98;;;;;;;;;;10381138;28;20071;-67
2024/03/01 05:00:42;;;;;;;18.33;13.55;;;;;;;;;;10376176;28;20102;-68
2024/03/01 05:05:40;;;;;;;16.80;13.40;;;;;;;;;;10360562;28;20076;-67
2024/03/01 05:10:39;;;;;;;18.25;15.75;;;;;;;;;;10382785;28;20079;-67
2024/03/01 05:15:38;;;;;;;17.83;14.43;;;;;;;;;;10374346;28;20075;-68
2024/03/01 05:20:38;;;;;;;26.17;17.25;;;;;;;;;;10379804;28;20071;-67
2024/03/01 05:25:36;;;;;;;26.70;18.02;;;;;;;;;;10362341;28;20082;-66
2024/03/01 05:30:35;;;;;;;28.42;19.88;;;;;;;;;;10381129;28;20080;-66
2024/03/01 05:35:49;;;;;;;22.95;17.20;;;;;;;;;;10382307;28;20078;-66
2024/03/01 05:40:48;;;;;;;21.05;16.95;;;;;;;;;;10383478;28;20074;-66
2024/03/01 05:45:52;;;;;;;20.17;15.82;;;;;;;;;;10378496;28;20083;-66
2024/03/01 05:50:52;;;;;;;17.92;14.65;;;;;;;;;;10378110;28;20507;-66
2024/03/01 05:55:50;;;;;;;17.92;14.25;;;;;;;;;;10368407;28;20447;-67
2024/03/01 06:00:51;;;;;;;16.13;13.27;;;;;;;;;;10375721;28;20086;-67
2024/03/01 06:05:49;;;;;;;18.98;15.95;;;;;;;;;;10373766;28;20087;-67
2024/03/01 06:10:49;;;;;;;23.85;15.23;;;;;;;;;;10381565;28;20624;-68
2024/03/01 06:15:48;;;;;;;19.55;15.60;;;;;;;;;;10393441;28;20472;-68
2024/03/01 06:20:47;;;;;;;19.85;16.65;;;;;;;;;;10395578;28;20067;-67
2024/03/01 06:25:45;;;;;;;21.17;16.40;;;;;;;;;;10389434;28;20087;-67
2024/03/01 06:30:45;;;;;;;22.67;17.83;;;;;;;;;;10371566;28;20464;-66
2024/03/01 06:35:43;;;;;;;21.73;16.95;;;;;;;;;;10362957;28;20253;-67
2024/03/01 06:40:41;;;;;;;20.23;16.38;;;;;;;;;;10374614;28;20683;-67
2024/03/01 06:45:40;;;;;;;21.23;16.88;;;;;;;;;;10365512;28;20076;-66
2024/03/01 06:50:39;;;;;;;20.50;16.55;;;;;;;;;;10372571;28;20078;-66
2024/03/01 06:55:37;;;;;;;20.27;14.90;;;;;;;;;;10374862;28;20124;-66
2024/03/01 07:00:36;;;;;;;21.17;17.15;;;;;;;;;;10375910;28;20087;-66
2024/03/01 07:05:34;;;;;;;26.00;16.77;;;;;;;;;;10372606;28;20527;-66
2024/03/01 07:10:34;;;;;;;22.40;18.23;;;;;;;;;;10373601;28;20531;-67
2024/03/01 07:15:32;;;;;;;20.70;17.77;;;;;;;;;;10374739;28;20071;-67
2024/03/01 07:20:32;;;;;;;23.95;18.00;;;;;;;;;;10375551;28;20518;-69
2024/03/01 07:25:30;;;;;;;21.70;17.50;;;;;;;;;;10373745;28;20457;-68
2024/03/01 07:30:30;;;;;;;23.20;17.65;;;;;;;;;;10375863;28;20067;-68
2024/03/01 07:35:29;;;;;;;19.67;16.10;;;;;;;;;;10372591;28;20082;-67
2024/03/01 07:40:27;;;;;;;24.48;18.80;;;;;;;;;;10372311;28;20530;-67
2024/03/01 07:45:25;;;;;;;22.27;18.50;;;;;;;;;;10374528;28;20436;-67
2024/03/01 07:50:26;;;;;;;26.67;18.52;;;;;;;;;;10377807;28;20074;-66
2024/03/01 07:55:24;;;;;;;22.42;17.27;;;;;;;;;;10369688;28;20101;-68
2024/03/01 08:00:23;;;;;;;21.80;15.75;;;;;;;;;;10371930;28;20076;-68
2024/03/01 08:05:21;;;;;;;22.77;18.52;;;;;;;;;;10367323;28;20075;-67
2024/03/01 08:10:21;;;;;;;22.30;18.33;;;;;;;;;;10366181;28;20673;-67
2024/03/01 08:15:23;;;;;;;27.98;18.70;;;;;;;;;;10373722;28;20075;-67
2024/03/01 08:20:30;;;;;;;31.40;22.60;;;;;;;;;;10371502;28;20060;-67
2024/03/01 08:25:30;;;;;;;23.48;19.25;;;;;;;;;;10371454;28;20079;-67
2024/03/01 08:30:38;;;;;;;21.90;18.20;;;;;;;;;;10371747;28;20044;-67
2024/03/01 08:35:36;;;;;;;25.48;18.58;;;;;;;;;;10365556;28;20079;-67
2024/03/01 08:40:49;;;;;;;18.80;16.25;;;;;;;;;;10372035;28;20200;-67
2024/03/01 08:45:48;;;;;;;23.85;18.52;;;;;;;;;;10369731;28;20071;-67
2024/03/01 08:50:49;;;;;;;26.63;19.27;;;;;;;;;;10372639;28;20080;-66
2024/03/01 08:55:50;;;;;;;20.00;16.05;;;;;;;;;;10370091;28;20077;-67
2024/03/01 09:00:49;;;;;;;24.17;18.48;;;;;;;;;;10373480;28;20083;-67
2024/03/01 09:05:47;;;;;;;20.15;17.75;;;;;;;;;;10370144;28;20079;-67
2024/03/01 09:10:47;;;;;;;18.88;15.93;;;;;;;;;;10372542;28;20051;-67
2024/03/01 09:15:47;;;;;;;21.85;16.95;;;;;;;;;;10370310;28;20064;-66
2024/03/01 09:20:49;;;;;;;17.95;15.25;;;;;;;;;;10371041;28;20088;-67
2024/03/01 09:25:58;;;;;;;20.85;16.35;;;;;;;;;;10352478;28;20086;-66
2024/03/01 09:30:57;;;;;;;18.73;15.52;;;;;;;;;;10374960;28;20477;-66
2024/03/01 09:35:56;;;;;;;30.13;15.73;;;;;;;;;;10374486;28;20083;-65
2024/03/01 09:41:16;;;;;;;17.85;14.60;;;;;;;;;;10375755;28;20078;-68
2024/03/01 09:46:18;;;;;;;19.08;14.90;;;;;;;;;;10376711;28;20083;-66
2024/03/01 09:51:32;;;;;;;27.70;16.98;;;;;;;;;;10375030;28;20073;-67
2024/03/01 09:56:34;;;;;;;17.13;15.40;;;;;;;;;;10371309;28;20072;-67
2024/03/01 10:01:37;;;;;;;17.05;13.55;;;;;;;;;;10371798;28;20086;-68
2024/03/01 10:06:44;;;;;;;16.08;12.93;;;;;;;;;;10370481;28;20097;-66
2024/03/01 10:11:51;;;;;;;19.35;14.75;;;;;;;;;;10375666;28;20080;-67
2024/03/01 10:16:57;;;;;;;20.42;13.82;;;;;;;;;;10376294;28;20071;-67
2024/03/01 10:22:01;;;;;;;15.18;12.75;;;;;;;;;;10376061;28;20505;-67
2024/03/01 10:27:02;;;;;;;14.95;12.43;;;;;;;;;;10372733;28;20067;-68
2024/03/01 10:32:10;;;;;;;17.70;15.75;;;;;;;;;;10375438;28;20504;-67
2024/03/01 10:37:13;;;;;;;15.77;12.88;;;;;;;;;;10369772;28;20074;-67
2024/03/01 10:42:14;;;;;;;14.60;11.88;;;;;;;;;;10375226;28;20066;-67
2024/03/01 10:47:18;;;;;;;19.85;12.18;;;;;;;;;;10377360;28;20068;-67
2024/03/01 10:52:19;;;;;;;15.00;12.23;;;;;;;;;;10374720;28;20067;-67
2024/03/01 10:57:18;;;;;;;17.00;12.98;;;;;;;;;;10377158;28;20060;-67
2024/03/01 11:02:21;;;;;;;28.10;16.35;;;;;;;;;;10373373;28;20087;-67
2024/03/01 11:07:26;;;;;;;17.25;10.25;;;;;;;;;;10372870;28;20067;-68
2024/03/01 11:12:28;;;;;;;14.30;9.77;;;;;;;;;;10374259;28;20071;-68
2024/03/01 11:17:29;;;;;;;13.48;9.73;;;;;;;;;;10371126;28;20102;-69
2024/03/01 11:22:28;;;;;;;12.23;8.93;;;;;;;;;;10376224;28;20097;-67
2024/03/01 11:27:28;;;;;;;12.75;9.77;;;;;;;;;;10371703;28;20075;-68
2024/03/01 11:32:30;;;;;;;13.50;8.23;;;;;;;;;;10373598;28;20068;-68
2024/03/01 11:37:39;;;;;;;9.98;7.32;;;;;;;;;;10372012;28;20036;-67
2024/03/01 11:42:46;;;;;;;13.98;8.30;;;;;;;;;;10365075;28;20046;-67
2024/03/01 11:47:55;;;;;;;11.48;6.47;;;;;;;;;;10375266;28;20451;-67
2024/03/01 11:53:01;;;;;;;12.05;7.32;;;;;;;;;;10371428;28;20060;-67
2024/03/01 11:58:02;;;;;;;8.55;6.57;;;;;;;;;;10371462;28;20044;-66
2024/03/01 12:03:15;;;;;;;11.52;6.63;;;;;;;;;;10371801;28;20503;-67
2024/03/01 12:08:23;;;;;;;11.35;7.72;;;;;;;;;;10367667;28;20078;-66
2024/03/01 12:13:22;;;;;;;10.75;6.60;;;;;;;;;;10373106;28;20059;-68
2024/03/01 12:18:25;;;;;;;14.40;6.95;;;;;;;;;;10368571;28;20070;-68
2024/03/01 12:23:35;;;;;;;8.00;5.93;;;;;;;;;;10374495;28;20091;-68
2024/03/01 12:28:40;;;;;;;7.35;5.90;;;;;;;;;;10370443;28;20083;-67
2024/03/01 12:33:51;;;;;;;12.10;6.20;;;;;;;;;;10365432;28;20040;-67
2024/03/01 12:38:55;;;;;;;9.88;6.80;;;;;;;;;;10372558;28;20527;-69
2024/03/01 12:44:03;;;;;;;9.13;6.07;;;;;;;;;;10353272;28;20072;-70
2024/03/01 12:49:09;;;;;;;8.48;5.45;;;;;;;;;;10362320;28;20048;-70
2024/03/01 12:54:10;;;;;;;17.73;6.47;;;;;;;;;;10373553;28;20071;-69
2024/03/01 12:59:21;;;;;;;8.65;5.55;;;;;;;;;;10369220;28;20086;-70
2024/03/01 13:04:28;;;;;;;12.65;6.60;;;;;;;;;;10371934;28;20310;-69
2024/03/01 13:09:31;;;;;;;8.93;6.60;;;;;;;;;;10373767;28;20063;-69
2024/03/01 13:14:36;;;;;;;8.57;6.18;;;;;;;;;;10375373;28;20056;-69
2024/03/01 13:19:41;;;;;;;15.15;9.23;;;;;;;;;;10377271;28;20067;-69
2024/03/01 13:24:44;;;;;;;11.07;6.80;;;;;;;;;;10380548;28;20072;-69
2024/03/01 13:29:43;;;;;;;12.73;8.18;;;;;;;;;;10371702;28;20415;-70
2024/03/01 13:34:43;;;;;;;14.10;9.00;;;;;;;;;;10374649;28;20075;-68
2024/03/01 13:39:46;;;;;;;13.05;7.93;;;;;;;;;;10378627;28;20068;-69
2024/03/01 13:44:46;;;;;;;14.63;7.80;;;;;;;;;;10378214;28;20068;-69
2024/03/01 13:49:47;;;;;;;10.77;7.25;;;;;;;;;;10376820;28;20063;-69
2024/03/01 13:54:47;;;;;;;13.75;7.85;;;;;;;;;;10378972;28;20063;-68
2024/03/01 13:59:45;;;;;;;11.18;7.03;;;;;;;;;;10379395;28;20072;-69
2024/03/01 14:04:43;;;;;;;10.35;5.80;;;;;;;;;;10374059;28;20531;-70
2024/03/01 14:09:46;;;;;;;11.35;5.82;;;;;;;;;;10378156;28;20472;-69
2024/03/01 14:14:46;;;;;;;11.82;6.10;;;;;;;;;;10375143;28;20075;-69
2024/03/01 14:19:45;;;;;;;11.57;5.55;;;;;;;;;;10366403;28;20094;-70
2024/03/01 14:24:44;;;;;;;10.98;5.78;;;;;;;;;;10367694;28;20535;-69
2024/03/01 14:29:43;;;;;;;12.90;6.13;;;;;;;;;;10375629;28;20441;-70
2024/03/01 14:34:43;;;;;;;9.65;5.93;;;;;;;;;;10366111;28;20472;-68
2024/03/01 14:39:43;;;;;;;14.27;6.15;;;;;;;;;;10375063;28;20071;-69
2024/03/01 14:44:43;;;;;;;11.93;6.45;;;;;;;;;;10376686;28;20062;-70
2024/03/01 14:49:43;;;;;;;13.35;6.70;;;;;;;;;;10372931;28;20094;-69
2024/03/01 14:54:44;;;;;;;14.45;7.97;;;;;;;;;;10369269;28;20086;-69
2024/03/01 14:59:43;;;;;;;15.68;10.68;;;;;;;;;;10375036;28;20505;-68
2024/03/01 15:04:44;;;;;;;15.68;8.40;;;;;;;;;;10375926;28;20492;-69
2024/03/01 15:09:44;;;;;;;23.50;12.40;;;;;;;;;;10369001;28;20074;-68
2024/03/01 15:14:42;;;;;;;16.73;9.10;;;;;;;;;;10370445;28;20070;-70
2024/03/01 15:19:42;;;;;;;29.75;18.02;;;;;;;;;;10371671;28;20440;-67
2024/03/01 15:24:42;;;;;;;16.30;8.90;;;;;;;;;;10377226;28;20064;-66
2024/03/01 15:29:40;;;;;;;10.98;6.65;;;;;;;;;;10358954;28;20071;-67
2024/03/01 15:34:38;;;;;;;15.40;8.35;;;;;;;;;;10372926;28;20080;-66
2024/03/01 15:39:37;;;;;;;14.20;7.50;;;;;;;;;;10374971;28;20067;-67
2024/03/01 15:44:37;;;;;;;12.27;8.32;;;;;;;;;;10378418;28;20069;-69
2024/03/01 15:49:38;;;;;;;12.70;8.65;;;;;;;;;;10352382;28;20482;-69
2024/03/01 15:54:37;;;;;;;27.75;22.40;;;;;;;;;;10377619;28;20082;-68
2024/03/01 15:59:37;;;;;;;17.88;11.05;;;;;;;;;;10371697;28;20078;-68
2024/03/01 16:04:35;;;;;;;14.32;9.35;;;;;;;;;;10373614;28;20111;-66
2024/03/01 16:09:34;;;;;;;12.73;8.60;;;;;;;;;;10373726;28;20067;-67
2024/03/01 16:14:32;;;;;;;16.00;8.52;;;;;;;;;;10378350;28;20064;-67
2024/03/01 16:19:32;;;;;;;14.18;8.15;;;;;;;;;;10370296;28;20099;-67
2024/03/01 16:24:30;;;;;;;13.48;8.02;;;;;;;;;;10366722;28;20083;-67
2024/03/01 16:29:30;;;;;;;12.50;8.60;;;;;;;;;;10369705;28;20071;-67
2024/03/01 16:34:31;;;;;;;18.85;11.52;;;;;;;;;;10371490;28;20900;-68
2024/03/01 16:39:33;;;;;;;16.10;9.85;;;;;;;;;;10372564;28;20063;-67
2024/03/01 16:44:38;;;;;;;11.82;8.77;;;;;;;;;;10380250;28;20075;-68
2024/03/01 16:49:38;;;;;;;14.80;10.65;;;;;;;;;;10381658;28;20083;-66
2024/03/01 16:54:41;;;;;;;12.35;9.00;;;;;;;;;;10380038;28;20075;-67
2024/03/01 16:59:40;;;;;;;15.60;10.15;;;;;;;;;;10378807;28;20079;-67
2024/03/01 17:04:38;;;;;;;17.10;10.52;;;;;;;;;;10378997;28;20840;-66
2024/03/01 17:09:37;;;;;;;17.63;10.80;;;;;;;;;;10378722;28;20105;-67
2024/03/01 17:14:36;;;;;;;17.33;12.98;;;;;;;;;;10380272;28;20122;-67
2024/03/01 17:19:42;;;;;;;24.17;19.58;;;;;;;;;;10378142;28;20512;-68
2024/03/01 17:24:41;;;;;;;34.88;23.50;;;;;;;;;;10377541;28;20101;-66
2024/03/01 17:29:40;;;;;;;19.08;14.95;;;;;;;;;;10382416;28;20465;-67
2024/03/01 17:34:39;;;;;;;26.80;20.00;;;;;;;;;;10378090;28;20067;-67
2024/03/01 17:39:37;;;;;;;25.90;20.85;;;;;;;;;;10379200;28;20072;-68
2024/03/01 17:44:35;;;;;;;33.95;21.65;;;;;;;;;;10376650;28;20551;-68
2024/03/01 17:49:35;;;;;;;32.20;24.70;;;;;;;;;;10381086;28;20098;-67
2024/03/01 17:54:33;;;;;;;24.52;18.58;;;;;;;;;;10377949;28;20059;-65
2024/03/01 17:59:31;;;;;;;21.90;15.70;;;;;;;;;;10381802;28;20079;-65
2024/03/01 18:04:30;;;;;;;19.52;15.23;;;;;;;;;;10376471;28;20079;-67
2024/03/01 18:09:30;;;;;;;21.50;13.02;;;;;;;;;;10381566;28;20457;-67
2024/03/01 18:14:28;;;;;;;20.98;15.73;;;;;;;;;;10372402;28;20078;-68
2024/03/01 18:19:26;;;;;;;28.02;17.05;;;;;;;;;;10376030;28;20079;-67
2024/03/01 18:24:25;;;;;;;19.55;15.38;;;;;;;;;;10377486;28;20067;-68
2024/03/01 18:29:28;;;;;;;19.80;13.40;;;;;;;;;;10377252;28;20476;-67
2024/03/01 18:34:27;;;;;;;29.85;19.90;;;;;;;;;;10378166;28;20074;-66
2024/03/01 18:39:25;;;;;;;19.40;12.20;;;;;;;;;;10372832;28;20105;-67
2024/03/01 18:44:25;;;;;;;23.33;15.27;;;;;;;;;;10378769;28;20071;-67
2024/03/01 18:49:23;;;;;;;15.05;11.55;;;;;;;;;;10378338;28;20071;-66
2024/03/01 18:54:22;;;;;;;19.48;11.13;;;;;;;;;;10375129;28;20082;-65
2024/03/01 18:59:20;;;;;;;24.35;15.27;;;;;;;;;;10375048;28;20094;-66
2024/03/01 19:04:20;;;;;;;18.70;11.50;;;;;;;;;;10375624;28;20071;-66
2024/03/01 19:09:18;;;;;;;15.13;10.32;;;;;;;;;;10379164;28;20071;-66
2024/03/01 19:14:16;;;;;;;18.40;11.55;;;;;;;;;;10375929;28;20072;-68
2024/03/01 19:19:14;;;;;;;16.50;9.70;;;;;;;;;;10374006;28;20070;-68
2024/03/01 19:24:14;;;;;;;15.00;7.88;;;;;;;;;;10376957;28;20055;-67
2024/03/01 19:29:15;;;;;;;10.30;6.78;;;;;;;;;;10375700;28;20067;-67
2024/03/01 19:34:14;;;;;;;9.27;6.82;;;;;;;;;;10358818;28;20075;-65
2024/03/01 19:39:13;;;;;;;16.10;7.65;;;;;;;;;;10371863;28;20072;-68
2024/03/01 19:44:12;;;;;;;23.80;14.32;;;;;;;;;;10381107;28;20074;-68
2024/03/01 19:49:10;;;;;;;37.45;19.90;;;;;;;;;;10380944;28;20087;-67
2024/03/01 19:54:08;;;;;;;9.85;6.88;;;;;;;;;;10380854;28;20067;-67
2024/03/01 19:59:08;;;;;;;16.25;7.53;;;;;;;;;;10374063;28;20072;-67
2024/03/01 20:04:06;;;;;;;36.75;19.33;;;;;;;;;;10375945;28;20461;-68
2024/03/01 20:09:05;;;;;;;29.40;15.20;;;;;;;;;;10380869;28;20087;-67
2024/03/01 20:14:03;;;;;;;17.67;8.93;;;;;;;;;;10380546;28;20292;-65
2024/03/01 20:19:05;;;;;;;11.93;7.35;;;;;;;;;;10362359;28;20429;-63
2024/03/01 20:24:05;;;;;;;15.07;10.27;;;;;;;;;;10381352;28;20063;-64
2024/03/01 20:29:03;;;;;;;24.50;15.77;;;;;;;;;;10373968;28;20072;-63
2024/03/01 20:34:03;;;;;;;25.52;15.45;;;;;;;;;;10374922;28;20068;-63
2024/03/01 20:39:02;;;;;;;50.72;36.92;;;;;;;;;;10369415;28;20067;-64
2024/03/01 20:44:01;;;;;;;21.80;12.23;;;;;;;;;;10369512;28;20064;-66
2024/03/01 20:48:59;;;;;;;13.82;8.73;;;;;;;;;;10374051;28;20067;-64
2024/03/01 20:53:59;;;;;;;11.93;7.63;;;;;;;;;;10369230;28;20067;-62
2024/03/01 20:58:57;;;;;;;15.25;8.38;;;;;;;;;;10368013;28;20087;-63
2024/03/01 21:03:56;;;;;;;21.25;10.60;;;;;;;;;;10372459;28;20071;-64
2024/03/01 21:08:54;;;;;;;13.00;8.55;;;;;;;;;;10373781;28;20511;-65
2024/03/01 21:14:02;;;;;;;13.70;8.27;;;;;;;;;;10369428;28;20063;-63
2024/03/01 21:19:00;;;;;;;15.18;7.53;;;;;;;;;;10368110;28;20082;-63
2024/03/01 21:23:58;;;;;;;14.30;7.85;;;;;;;;;;10371191;28;20079;-63
2024/03/01 21:28:58;;;;;;;15.55;8.23;;;;;;;;;;10378154;28;20086;-64
2024/03/01 21:33:56;;;;;;;14.35;8.90;;;;;;;;;;10377180;28;20519;-65
2024/03/01 21:38:55;;;;;;;18.42;9.18;;;;;;;;;;10377123;28;20071;-63
2024/03/01 21:43:54;;;;;;;14.32;9.10;;;;;;;;;;10357841;28;20122;-64
2024/03/01 21:48:54;;;;;;;15.20;9.82;;;;;;;;;;10388731;28;20078;-64
2024/03/01 21:53:53;;;;;;;15.73;9.68;;;;;;;;;;10383795;28;20072;-64
2024/03/01 21:58:51;;;;;;;14.40;8.60;;;;;;;;;;10377373;28;20082;-64
2024/03/01 22:03:50;;;;;;;22.27;9.35;;;;;;;;;;10378103;28;20539;-63
2024/03/01 22:08:49;;;;;;;14.48;7.53;;;;;;;;;;10378795;28;20520;-63
2024/03/01 22:13:49;;;;;;;19.63;7.20;;;;;;;;;;10377486;28;20071;-64
2024/03/01 22:18:49;;;;;;;10.52;6.05;;;;;;;;;;10376985;28;20068;-62
2024/03/01 22:23:47;;;;;;;10.20;7.05;;;;;;;;;;10380410;28;20106;-63
2024/03/01 22:28:47;;;;;;;14.15;6.88;;;;;;;;;;10379812;28;20090;-63
2024/03/01 22:33:46;;;;;;;15.70;7.93;;;;;;;;;;10381871;28;20074;-63
2024/03/01 22:38:46;;;;;;;19.25;8.60;;;;;;;;;;10374307;28;20072;-64
2024/03/01 22:43:48;;;;;;;15.63;7.25;;;;;;;;;;10373269;28;20067;-64
2024/03/01 22:48:50;;;;;;;15.68;8.48;;;;;;;;;;10373471;28;20074;-65
2024/03/01 22:53:49;;;;;;;12.95;6.78;;;;;;;;;;10380838;28;20512;-65
2024/03/01 22:58:59;;;;;;;13.93;6.55;;;;;;;;;;10375881;28;20129;-64
2024/03/01 23:04:39;;;;;;;;;;;;;;;;;;;;;
2024/03/01 23:16:07;;;;;;;11.20;6.80;;;;;;;;;;10374646;28;20452;-63
2024/03/01 23:21:07;;;;;;;12.68;6.97;;;;;;;;;;10374271;28;20071;-64
2024/03/01 23:26:08;;;;;;;16.33;8.02;;;;;;;;;;10377978;28;20117;-64
2024/03/01 23:31:06;;;;;;;13.80;6.75;;;;;;;;;;10378722;28;20066;-63
2024/03/01 23:36:05;;;;;;;12.57;6.93;;;;;;;;;;10374759;28;20069;-63
2024/03/01 23:41:08;;;;;;;19.10;7.70;;;;;;;;;;10375323;28;20063;-65
2024/03/01 23:46:06;;;;;;;17.02;7.70;;;;;;;;;;10374229;28;20086;-65
2024/03/01 23:51:04;;;;;;;12.70;7.32;;;;;;;;;;10376831;28;20070;-64
2024/03/01 23:56:02;;;;;;;13.70;8.25;;;;;;;;;;10375761;28;20067;-64
